Weatherford, OK

2:04 PM CDT on August 21, 2014 (GMT -0500)
Custer City | Change Station
CLOSE
Current Station
Personal Weather Station
Location: Custer City, OK
Elevation: 1775 ft
Nearby Weather Stations

Elev 1775 ft 35.67 °N, 98.88 °W | Updated 9 seconds ago

Clear
Clear
95.0 °F
Feels Like 101 °F
N
11.0
Wind Variable Wind from South
Gusts 17.0 mph

Today
High -- | Low -- °F
--% Chance of Precip.
Yesterday
High -- | Low -- °F
Precip. -- in
6:58 AM 8:16 PM
Waning Crescent, 13% visible
Pressure 29.94 in
Visibility 10.0 miles
Clouds Clear
Heat Index 101 °F
Dew Point 70 °F
Humidity 44%
Rainfall 0.00 in
Snow Depth Not available.
UV 11 out of 12
Pollen 9.80 out of 12
Air Quality Not available.
Flu Activity Not available.
METAR KJWG 211855Z AUTO 19016G21KT 10SM CLR 35/21 A2994 RMK AO2 T03500214

More Conditions Fewer Conditions

Pressure 29.94 in
Visibility 10.0 miles
Clouds Clear
Heat Index 101 °F
Dew Point 70 °F
Humidity 44%
Rainfall 0.00 in
Snow Depth Not available.
UV 11 out of 12
Pollen 9.80 out of 12
Air Quality Not available.
Flu Activity Not available.
METAR KJWG 211855Z AUTO 19016G21KT 10SM CLR 35/21 A2994 RMK AO2 T03500214

More Conditions Fewer Conditions

10-Day Weather Forecast

Almanac

Astronomy

Aug. 21, 2014 Rise Set
Actual Time 6:58 AM CDT 8:16 PM CDT
Civil Twilight 6:32 AM CDT 8:43 PM CDT
Nautical Twilight 6:00 AM CDT 9:14 PM CDT
Astronomical Twilight 5:26 AM CDT 9:47 PM CDT
Moon 3:33 AM CDT 5:43 PM CDT
Length of Visible Light 14h 11m
Length of Day
13h 17m
Tomorrow will be 2m 3s shorter.
Waning Crescent, 13% of the Moon is Illuminated
Today
Waning Crescent
Aug 25
New
Sep 2
First Quarter
Sep 8
Full
Sep 15
Last Quarter

Today's Extremes

State Highs State Lows

Community

WunderPhotos

Upload Photos

1,746,002 photos uploaded!

WunderBlogs® & News

Nearby

Snow Depth

Station Depth Elevation
No new snow has been reported.

Earthquake Activity

City Distance Mag. Time & Date
Medford, Oklahoma 94 miles 3.0 9:13 PM CDT
2014-08-16
Medford, Oklahoma 102 miles 3.4 5:54 AM CDT
2014-08-16
Medford, Oklahoma 103 miles 2.5 7:09 AM CDT
2014-08-15
Langston, Oklahoma 89 miles 2.9 9:49 PM CDT
2014-08-14
Minimum magnitude displayed is 2.5.

Coastal Water Temperatures

Place Temperature
No Stations Reporting

Nearby Weather Stations